sensor_id;sensor_type;location;lat;lon;timestamp;temperature;humidity
70271;SHT31;57680;54.292;18.598;2023-04-03T00:00:56;2.21;72.41
70271;SHT31;57680;54.292;18.598;2023-04-03T00:03:22;2.11;73.07
70271;SHT31;57680;54.292;18.598;2023-04-03T00:05:48;2.16;72.59
70271;SHT31;57680;54.292;18.598;2023-04-03T00:08:13;2.07;72.91
70271;SHT31;57680;54.292;18.598;2023-04-03T00:10:39;2.14;71.88
70271;SHT31;57680;54.292;18.598;2023-04-03T00:13:06;2.07;70.63
70271;SHT31;57680;54.292;18.598;2023-04-03T00:15:32;2.06;70.63
70271;SHT31;57680;54.292;18.598;2023-04-03T00:17:58;2.05;70.58
70271;SHT31;57680;54.292;18.598;2023-04-03T00:20:23;2.19;69.29
70271;SHT31;57680;54.292;18.598;2023-04-03T00:22:49;2.10;69.61
70271;SHT31;57680;54.292;18.598;2023-04-03T00:25:15;2.13;68.93
70271;SHT31;57680;54.292;18.598;2023-04-03T00:27:42;2.09;69.56
70271;SHT31;57680;54.292;18.598;2023-04-03T00:30:11;1.99;70.33
70271;SHT31;57680;54.292;18.598;2023-04-03T00:32:37;2.05;69.61
70271;SHT31;57680;54.292;18.598;2023-04-03T00:35:03;2.13;69.31
70271;SHT31;57680;54.292;18.598;2023-04-03T00:37:29;2.10;69.64
70271;SHT31;57680;54.292;18.598;2023-04-03T00:39:54;2.09;69.64
70271;SHT31;57680;54.292;18.598;2023-04-03T00:42:20;2.03;68.98
70271;SHT31;57680;54.292;18.598;2023-04-03T00:47:12;2.02;69.04
70271;SHT31;57680;54.292;18.598;2023-04-03T00:49:39;2.00;68.80
70271;SHT31;57680;54.292;18.598;2023-04-03T00:52:07;1.93;68.73
70271;SHT31;57680;54.292;18.598;2023-04-03T00:54:36;1.95;68.71
70271;SHT31;57680;54.292;18.598;2023-04-03T00:57:02;1.85;69.43
70271;SHT31;57680;54.292;18.598;2023-04-03T00:59:33;1.95;68.16
70271;SHT31;57680;54.292;18.598;2023-04-03T01:01:59;1.93;67.58
70271;SHT31;57680;54.292;18.598;2023-04-03T01:04:30;1.95;66.99
70271;SHT31;57680;54.292;18.598;2023-04-03T01:07:00;1.87;67.78
70271;SHT31;57680;54.292;18.598;2023-04-03T01:09:27;1.90;67.61
70271;SHT31;57680;54.292;18.598;2023-04-03T01:11:53;1.92;67.44
70271;SHT31;57680;54.292;18.598;2023-04-03T01:14:19;1.86;67.40
70271;SHT31;57680;54.292;18.598;2023-04-03T01:16:54;1.81;68.00
70271;SHT31;57680;54.292;18.598;2023-04-03T01:19:21;1.87;68.25
70271;SHT31;57680;54.292;18.598;2023-04-03T01:22:10;1.85;67.33
70271;SHT31;57680;54.292;18.598;2023-04-03T01:24:39;1.92;65.58
70271;SHT31;57680;54.292;18.598;2023-04-03T01:27:07;1.85;65.75
70271;SHT31;57680;54.292;18.598;2023-04-03T01:29:34;1.90;64.99
70271;SHT31;57680;54.292;18.598;2023-04-03T01:32:00;1.89;65.14
70271;SHT31;57680;54.292;18.598;2023-04-03T01:34:28;1.86;64.64
70271;SHT31;57680;54.292;18.598;2023-04-03T01:36:53;1.83;64.28
70271;SHT31;57680;54.292;18.598;2023-04-03T01:39:20;1.86;64.63
70271;SHT31;57680;54.292;18.598;2023-04-03T01:41:46;1.82;64.97
70271;SHT31;57680;54.292;18.598;2023-04-03T01:44:12;1.75;65.50
70271;SHT31;57680;54.292;18.598;2023-04-03T01:46:37;1.69;65.69
70271;SHT31;57680;54.292;18.598;2023-04-03T01:49:04;1.66;66.12
70271;SHT31;57680;54.292;18.598;2023-04-03T01:51:29;1.76;65.80
70271;SHT31;57680;54.292;18.598;2023-04-03T01:53:55;1.78;65.88
70271;SHT31;57680;54.292;18.598;2023-04-03T01:56:21;1.73;66.09
70271;SHT31;57680;54.292;18.598;2023-04-03T01:58:46;1.73;66.49
70271;SHT31;57680;54.292;18.598;2023-04-03T02:01:12;1.66;65.97
70271;SHT31;57680;54.292;18.598;2023-04-03T02:03:37;1.75;65.95
70271;SHT31;57680;54.292;18.598;2023-04-03T02:06:03;1.71;65.87
70271;SHT31;57680;54.292;18.598;2023-04-03T02:08:28;1.73;66.08
70271;SHT31;57680;54.292;18.598;2023-04-03T02:10:54;1.73;65.20
70271;SHT31;57680;54.292;18.598;2023-04-03T02:13:19;1.65;65.77
70271;SHT31;57680;54.292;18.598;2023-04-03T02:15:45;1.71;65.79
70271;SHT31;57680;54.292;18.598;2023-04-03T02:18:11;1.73;65.53
70271;SHT31;57680;54.292;18.598;2023-04-03T02:20:37;1.62;66.33
70271;SHT31;57680;54.292;18.598;2023-04-03T02:23:03;1.61;65.61
70271;SHT31;57680;54.292;18.598;2023-04-03T02:25:32;1.58;64.93
70271;SHT31;57680;54.292;18.598;2023-04-03T02:27:59;1.62;65.30
70271;SHT31;57680;54.292;18.598;2023-04-03T02:30:24;1.52;66.17
70271;SHT31;57680;54.292;18.598;2023-04-03T02:32:49;1.58;65.06
70271;SHT31;57680;54.292;18.598;2023-04-03T02:35:15;1.55;65.67
70271;SHT31;57680;54.292;18.598;2023-04-03T02:37:41;1.61;65.04
70271;SHT31;57680;54.292;18.598;2023-04-03T02:40:06;1.69;62.47
70271;SHT31;57680;54.292;18.598;2023-04-03T02:42:32;1.71;61.55
70271;SHT31;57680;54.292;18.598;2023-04-03T02:44:58;1.68;61.15
70271;SHT31;57680;54.292;18.598;2023-04-03T02:47:23;1.68;60.75
70271;SHT31;57680;54.292;18.598;2023-04-03T02:49:48;1.66;60.82
70271;SHT31;57680;54.292;18.598;2023-04-03T02:52:14;1.76;60.56
70271;SHT31;57680;54.292;18.598;2023-04-03T02:54:39;1.71;61.08
70271;SHT31;57680;54.292;18.598;2023-04-03T02:57:06;1.63;61.23
70271;SHT31;57680;54.292;18.598;2023-04-03T02:59:32;1.71;60.65
70271;SHT31;57680;54.292;18.598;2023-04-03T03:01:58;1.65;60.94
70271;SHT31;57680;54.292;18.598;2023-04-03T03:04:23;1.62;61.02
70271;SHT31;57680;54.292;18.598;2023-04-03T03:06:49;1.68;61.23
70271;SHT31;57680;54.292;18.598;2023-04-03T03:09:14;1.65;62.39
70271;SHT31;57680;54.292;18.598;2023-04-03T03:11:40;1.62;61.91
70271;SHT31;57680;54.292;18.598;2023-04-03T03:14:05;1.58;62.20
70271;SHT31;57680;54.292;18.598;2023-04-03T03:16:31;1.61;61.95
70271;SHT31;57680;54.292;18.598;2023-04-03T03:18:56;1.62;60.75
70271;SHT31;57680;54.292;18.598;2023-04-03T03:21:21;1.66;59.51
70271;SHT31;57680;54.292;18.598;2023-04-03T03:23:47;1.76;59.48
70271;SHT31;57680;54.292;18.598;2023-04-03T03:26:12;1.71;59.96
70271;SHT31;57680;54.292;18.598;2023-04-03T03:28:39;1.66;61.05
70271;SHT31;57680;54.292;18.598;2023-04-03T03:31:05;1.72;60.29
70271;SHT31;57680;54.292;18.598;2023-04-03T03:33:31;1.72;60.50
70271;SHT31;57680;54.292;18.598;2023-04-03T03:35:56;1.75;60.66
70271;SHT31;57680;54.292;18.598;2023-04-03T03:38:22;1.69;60.43
70271;SHT31;57680;54.292;18.598;2023-04-03T03:40:49;1.73;60.69
70271;SHT31;57680;54.292;18.598;2023-04-03T03:43:15;1.72;61.27
70271;SHT31;57680;54.292;18.598;2023-04-03T03:45:40;1.69;61.82
70271;SHT31;57680;54.292;18.598;2023-04-03T03:48:06;1.65;61.70
70271;SHT31;57680;54.292;18.598;2023-04-03T03:50:31;1.62;60.13
70271;SHT31;57680;54.292;18.598;2023-04-03T03:52:56;1.65;59.09
70271;SHT31;57680;54.292;18.598;2023-04-03T03:55:22;1.81;56.22
70271;SHT31;57680;54.292;18.598;2023-04-03T03:57:47;1.66;57.44
70271;SHT31;57680;54.292;18.598;2023-04-03T04:00:13;1.66;58.18
70271;SHT31;57680;54.292;18.598;2023-04-03T04:02:38;1.72;58.67
70271;SHT31;57680;54.292;18.598;2023-04-03T04:05:04;1.81;57.77
70271;SHT31;57680;54.292;18.598;2023-04-03T04:07:29;1.71;58.12
70271;SHT31;57680;54.292;18.598;2023-04-03T04:09:55;1.65;57.12
70271;SHT31;57680;54.292;18.598;2023-04-03T04:12:20;1.62;58.11
70271;SHT31;57680;54.292;18.598;2023-04-03T04:14:46;1.63;58.23
70271;SHT31;57680;54.292;18.598;2023-04-03T04:17:13;1.63;58.98
70271;SHT31;57680;54.292;18.598;2023-04-03T04:19:38;1.79;58.59
70271;SHT31;57680;54.292;18.598;2023-04-03T04:22:04;1.76;58.88
70271;SHT31;57680;54.292;18.598;2023-04-03T04:24:29;1.76;58.77
70271;SHT31;57680;54.292;18.598;2023-04-03T04:26:55;1.69;59.22
70271;SHT31;57680;54.292;18.598;2023-04-03T04:29:20;1.72;58.05
70271;SHT31;57680;54.292;18.598;2023-04-03T04:31:46;1.72;57.47
70271;SHT31;57680;54.292;18.598;2023-04-03T04:34:11;1.63;57.62
70271;SHT31;57680;54.292;18.598;2023-04-03T04:36:37;1.61;58.83
70271;SHT31;57680;54.292;18.598;2023-04-03T04:39:02;1.63;59.62
70271;SHT31;57680;54.292;18.598;2023-04-03T04:41:28;1.63;59.94
70271;SHT31;57680;54.292;18.598;2023-04-03T04:43:53;1.72;59.42
70271;SHT31;57680;54.292;18.598;2023-04-03T04:46:19;1.68;59.31
70271;SHT31;57680;54.292;18.598;2023-04-03T04:48:45;1.63;59.82
70271;SHT31;57680;54.292;18.598;2023-04-03T04:51:11;1.62;60.62
70271;SHT31;57680;54.292;18.598;2023-04-03T04:53:37;1.68;59.71
70271;SHT31;57680;54.292;18.598;2023-04-03T04:56:03;1.62;59.84
70271;SHT31;57680;54.292;18.598;2023-04-03T04:58:29;1.65;60.19
70271;SHT31;57680;54.292;18.598;2023-04-03T05:01:02;1.79;58.57
70271;SHT31;57680;54.292;18.598;2023-04-03T05:03:28;1.68;59.32
70271;SHT31;57680;54.292;18.598;2023-04-03T05:05:54;1.71;59.05
70271;SHT31;57680;54.292;18.598;2023-04-03T05:08:19;1.89;58.44
70271;SHT31;57680;54.292;18.598;2023-04-03T05:10:45;1.85;59.15
70271;SHT31;57680;54.292;18.598;2023-04-03T05:13:11;1.81;59.85
70271;SHT31;57680;54.292;18.598;2023-04-03T05:15:37;1.71;60.22
70271;SHT31;57680;54.292;18.598;2023-04-03T05:18:03;1.68;60.98
70271;SHT31;57680;54.292;18.598;2023-04-03T05:20:28;1.72;59.75
70271;SHT31;57680;54.292;18.598;2023-04-03T05:22:53;1.79;59.88
70271;SHT31;57680;54.292;18.598;2023-04-03T05:25:19;1.81;60.60
70271;SHT31;57680;54.292;18.598;2023-04-03T05:27:44;1.71;61.03
70271;SHT31;57680;54.292;18.598;2023-04-03T05:30:10;1.78;58.64
70271;SHT31;57680;54.292;18.598;2023-04-03T05:32:36;1.72;58.75
70271;SHT31;57680;54.292;18.598;2023-04-03T05:35:02;1.85;57.54
70271;SHT31;57680;54.292;18.598;2023-04-03T05:37:27;1.86;57.36
70271;SHT31;57680;54.292;18.598;2023-04-03T05:39:53;1.78;57.56
70271;SHT31;57680;54.292;18.598;2023-04-03T05:42:18;1.75;57.89
70271;SHT31;57680;54.292;18.598;2023-04-03T05:44:44;1.82;58.07
70271;SHT31;57680;54.292;18.598;2023-04-03T05:47:09;1.90;57.90
70271;SHT31;57680;54.292;18.598;2023-04-03T05:49:35;1.82;57.69
70271;SHT31;57680;54.292;18.598;2023-04-03T05:52:01;1.82;57.99
70271;SHT31;57680;54.292;18.598;2023-04-03T05:54:28;1.69;57.60
70271;SHT31;57680;54.292;18.598;2023-04-03T05:56:54;1.76;57.68
70271;SHT31;57680;54.292;18.598;2023-04-03T05:59:20;1.85;57.25
70271;SHT31;57680;54.292;18.598;2023-04-03T06:01:46;1.98;56.77
70271;SHT31;57680;54.292;18.598;2023-04-03T06:04:12;1.87;57.37
70271;SHT31;57680;54.292;18.598;2023-04-03T06:06:52;2.11;57.94
70271;SHT31;57680;54.292;18.598;2023-04-03T06:09:22;2.29;57.94
70271;SHT31;57680;54.292;18.598;2023-04-03T06:11:48;3.70;54.66
70271;SHT31;57680;54.292;18.598;2023-04-03T06:14:13;4.21;52.85
70271;SHT31;57680;54.292;18.598;2023-04-03T06:16:39;3.81;51.87
70271;SHT31;57680;54.292;18.598;2023-04-03T06:19:05;3.16;54.41
70271;SHT31;57680;54.292;18.598;2023-04-03T06:21:30;2.72;54.40
70271;SHT31;57680;54.292;18.598;2023-04-03T06:23:56;2.51;54.61
70271;SHT31;57680;54.292;18.598;2023-04-03T06:26:21;2.54;54.76
70271;SHT31;57680;54.292;18.598;2023-04-03T06:28:47;2.47;56.09
70271;SHT31;57680;54.292;18.598;2023-04-03T06:31:12;2.98;56.75
70271;SHT31;57680;54.292;18.598;2023-04-03T06:33:38;3.34;56.78
70271;SHT31;57680;54.292;18.598;2023-04-03T06:36:04;3.02;57.14
70271;SHT31;57680;54.292;18.598;2023-04-03T06:38:30;3.43;57.55
70271;SHT31;57680;54.292;18.598;2023-04-03T06:40:57;3.46;56.68
70271;SHT31;57680;54.292;18.598;2023-04-03T06:43:22;3.44;54.74
70271;SHT31;57680;54.292;18.598;2023-04-03T06:45:48;3.01;53.88
70271;SHT31;57680;54.292;18.598;2023-04-03T06:48:13;3.19;53.61
70271;SHT31;57680;54.292;18.598;2023-04-03T06:50:39;3.37;52.78
70271;SHT31;57680;54.292;18.598;2023-04-03T06:53:04;3.47;53.06
70271;SHT31;57680;54.292;18.598;2023-04-03T06:55:30;3.60;50.83
70271;SHT31;57680;54.292;18.598;2023-04-03T06:57:55;3.43;50.96
70271;SHT31;57680;54.292;18.598;2023-04-03T07:00:21;3.64;51.38
70271;SHT31;57680;54.292;18.598;2023-04-03T07:02:46;3.34;52.16
70271;SHT31;57680;54.292;18.598;2023-04-03T07:05:12;2.95;52.33
70271;SHT31;57680;54.292;18.598;2023-04-03T07:07:37;2.78;53.01
70271;SHT31;57680;54.292;18.598;2023-04-03T07:10:04;2.66;53.59
70271;SHT31;57680;54.292;18.598;2023-04-03T07:12:30;2.77;53.49
70271;SHT31;57680;54.292;18.598;2023-04-03T07:14:55;2.77;53.90
70271;SHT31;57680;54.292;18.598;2023-04-03T07:17:21;3.24;53.35
70271;SHT31;57680;54.292;18.598;2023-04-03T07:19:46;2.95;54.06
70271;SHT31;57680;54.292;18.598;2023-04-03T07:22:12;2.91;55.12
70271;SHT31;57680;54.292;18.598;2023-04-03T07:24:37;2.96;55.16
70271;SHT31;57680;54.292;18.598;2023-04-03T07:27:03;3.02;55.52
70271;SHT31;57680;54.292;18.598;2023-04-03T07:29:28;2.93;54.84
70271;SHT31;57680;54.292;18.598;2023-04-03T07:31:54;2.84;52.98
70271;SHT31;57680;54.292;18.598;2023-04-03T07:34:19;3.02;53.22
70271;SHT31;57680;54.292;18.598;2023-04-03T07:36:44;3.57;52.16
70271;SHT31;57680;54.292;18.598;2023-04-03T07:39:10;3.39;51.75
70271;SHT31;57680;54.292;18.598;2023-04-03T07:41:35;3.11;52.79
70271;SHT31;57680;54.292;18.598;2023-04-03T07:44:01;3.01;53.12
70271;SHT31;57680;54.292;18.598;2023-04-03T07:46:27;2.98;53.16
70271;SHT31;57680;54.292;18.598;2023-04-03T07:48:52;3.12;54.53
70271;SHT31;57680;54.292;18.598;2023-04-03T07:51:18;2.96;54.62
70271;SHT31;57680;54.292;18.598;2023-04-03T07:53:43;2.93;55.40
70271;SHT31;57680;54.292;18.598;2023-04-03T07:56:09;2.85;54.92
70271;SHT31;57680;54.292;18.598;2023-04-03T07:58:34;3.16;55.32
70271;SHT31;57680;54.292;18.598;2023-04-03T08:01:00;3.82;54.62
70271;SHT31;57680;54.292;18.598;2023-04-03T08:03:25;4.49;54.28
70271;SHT31;57680;54.292;18.598;2023-04-03T08:05:51;4.21;50.43
70271;SHT31;57680;54.292;18.598;2023-04-03T08:08:19;3.73;52.18
70271;SHT31;57680;54.292;18.598;2023-04-03T08:10:54;3.70;51.89
70271;SHT31;57680;54.292;18.598;2023-04-03T08:13:21;3.53;52.83
70271;SHT31;57680;54.292;18.598;2023-04-03T08:15:47;3.80;52.34
70271;SHT31;57680;54.292;18.598;2023-04-03T08:18:16;3.71;53.34
70271;SHT31;57680;54.292;18.598;2023-04-03T08:20:42;3.40;54.20
70271;SHT31;57680;54.292;18.598;2023-04-03T08:23:08;3.29;54.57
70271;SHT31;57680;54.292;18.598;2023-04-03T08:25:37;3.27;55.57
70271;SHT31;57680;54.292;18.598;2023-04-03T08:28:03;3.26;55.65
70271;SHT31;57680;54.292;18.598;2023-04-03T08:30:29;3.32;55.49
70271;SHT31;57680;54.292;18.598;2023-04-03T08:32:54;3.20;55.92
70271;SHT31;57680;54.292;18.598;2023-04-03T08:35:20;3.05;56.08
70271;SHT31;57680;54.292;18.598;2023-04-03T08:37:45;2.89;56.12
70271;SHT31;57680;54.292;18.598;2023-04-03T08:40:14;3.32;56.35
70271;SHT31;57680;54.292;18.598;2023-04-03T08:48:20;4.23;52.02
70271;SHT31;57680;54.292;18.598;2023-04-03T08:50:50;4.22;51.77
70271;SHT31;57680;54.292;18.598;2023-04-03T08:53:21;4.66;53.18
70271;SHT31;57680;54.292;18.598;2023-04-03T08:55:51;4.94;52.54
70271;SHT31;57680;54.292;18.598;2023-04-03T08:58:29;5.21;52.68
70271;SHT31;57680;54.292;18.598;2023-04-03T09:00:59;4.74;52.38
70271;SHT31;57680;54.292;18.598;2023-04-03T09:03:29;4.62;53.91
70271;SHT31;57680;54.292;18.598;2023-04-03T09:08:31;3.85;54.01
70271;SHT31;57680;54.292;18.598;2023-04-03T09:11:20;3.67;55.90
70271;SHT31;57680;54.292;18.598;2023-04-03T09:14:02;3.61;56.84
70271;SHT31;57680;54.292;18.598;2023-04-03T09:22:47;4.42;54.82
70271;SHT31;57680;54.292;18.598;2023-04-03T09:25:15;4.84;54.22
70271;SHT31;57680;54.292;18.598;2023-04-03T09:27:43;4.70;55.06
70271;SHT31;57680;54.292;18.598;2023-04-03T09:30:17;4.67;55.10
70271;SHT31;57680;54.292;18.598;2023-04-03T09:32:47;4.66;55.68
70271;SHT31;57680;54.292;18.598;2023-04-03T09:37:44;4.57;56.33
70271;SHT31;57680;54.292;18.598;2023-04-03T09:42:58;4.73;57.18
70271;SHT31;57680;54.292;18.598;2023-04-03T09:45:28;4.84;57.20
70271;SHT31;57680;54.292;18.598;2023-04-03T09:48:24;4.76;56.25
70271;SHT31;57680;54.292;18.598;2023-04-03T09:53:29;5.00;58.08
70271;SHT31;57680;54.292;18.598;2023-04-03T09:55:56;4.57;58.35
70271;SHT31;57680;54.292;18.598;2023-04-03T09:58:30;4.31;59.79
70271;SHT31;57680;54.292;18.598;2023-04-03T10:00:58;4.13;60.45
70271;SHT31;57680;54.292;18.598;2023-04-03T10:03:34;3.99;62.08
70271;SHT31;57680;54.292;18.598;2023-04-03T10:06:00;4.05;61.53
70271;SHT31;57680;54.292;18.598;2023-04-03T10:08:34;4.69;60.16
70271;SHT31;57680;54.292;18.598;2023-04-03T10:11:16;4.87;58.05
70271;SHT31;57680;54.292;18.598;2023-04-03T10:13:53;4.76;58.71
70271;SHT31;57680;54.292;18.598;2023-04-03T10:16:44;4.69;59.24
70271;SHT31;57680;54.292;18.598;2023-04-03T10:22:37;4.49;58.56
70271;SHT31;57680;54.292;18.598;2023-04-03T10:27:55;3.90;63.32
70271;SHT31;57680;54.292;18.598;2023-04-03T10:31:04;3.67;64.71
70271;SHT31;57680;54.292;18.598;2023-04-03T10:33:44;3.51;65.69
70271;SHT31;57680;54.292;18.598;2023-04-03T10:39:14;3.43;68.40
70271;SHT31;57680;54.292;18.598;2023-04-03T10:58:43;4.63;59.96
70271;SHT31;57680;54.292;18.598;2023-04-03T11:01:13;4.53;59.84
70271;SHT31;57680;54.292;18.598;2023-04-03T11:03:43;4.39;61.68
70271;SHT31;57680;54.292;18.598;2023-04-03T11:06:13;4.63;60.73
70271;SHT31;57680;54.292;18.598;2023-04-03T11:08:49;4.32;59.83
70271;SHT31;57680;54.292;18.598;2023-04-03T11:11:19;4.32;60.81
70271;SHT31;57680;54.292;18.598;2023-04-03T11:13:56;4.05;61.37
70271;SHT31;57680;54.292;18.598;2023-04-03T11:16:29;4.09;61.91
70271;SHT31;57680;54.292;18.598;2023-04-03T11:19:02;4.21;60.22
70271;SHT31;57680;54.292;18.598;2023-04-03T11:23:59;3.95;60.36
70271;SHT31;57680;54.292;18.598;2023-04-03T11:26:30;4.38;60.42
70271;SHT31;57680;54.292;18.598;2023-04-03T11:29:04;4.05;59.37
70271;SHT31;57680;54.292;18.598;2023-04-03T11:34:40;3.95;60.65
70271;SHT31;57680;54.292;18.598;2023-04-03T11:37:21;4.19;60.74
70271;SHT31;57680;54.292;18.598;2023-04-03T11:39:55;4.22;60.07
70271;SHT31;57680;54.292;18.598;2023-04-03T11:42:38;4.02;61.32
70271;SHT31;57680;54.292;18.598;2023-04-03T11:47:50;4.16;61.60
70271;SHT31;57680;54.292;18.598;2023-04-03T11:53:03;3.91;62.74
70271;SHT31;57680;54.292;18.598;2023-04-03T12:03:35;4.22;61.35
70271;SHT31;57680;54.292;18.598;2023-04-03T12:09:25;4.15;57.37
70271;SHT31;57680;54.292;18.598;2023-04-03T12:11:52;4.15;58.24
70271;SHT31;57680;54.292;18.598;2023-04-03T12:14:17;4.13;54.44
70271;SHT31;57680;54.292;18.598;2023-04-03T12:16:46;4.19;55.03
70271;SHT31;57680;54.292;18.598;2023-04-03T12:48:38;3.82;58.34
70271;SHT31;57680;54.292;18.598;2023-04-03T12:51:19;3.81;58.86
70271;SHT31;57680;54.292;18.598;2023-04-03T12:53:47;4.11;58.80
70271;SHT31;57680;54.292;18.598;2023-04-03T12:56:25;3.99;56.22
70271;SHT31;57680;54.292;18.598;2023-04-03T12:58:54;4.08;55.98
70271;SHT31;57680;54.292;18.598;2023-04-03T13:01:24;4.11;54.89
70271;SHT31;57680;54.292;18.598;2023-04-03T13:03:55;3.94;53.53
70271;SHT31;57680;54.292;18.598;2023-04-03T13:06:25;3.92;56.26
70271;SHT31;57680;54.292;18.598;2023-04-03T13:08:53;4.12;56.01
70271;SHT31;57680;54.292;18.598;2023-04-03T13:11:20;4.35;57.98
70271;SHT31;57680;54.292;18.598;2023-04-03T13:13:58;4.42;55.78
70271;SHT31;57680;54.292;18.598;2023-04-03T13:16:24;4.26;57.79
70271;SHT31;57680;54.292;18.598;2023-04-03T13:18:52;4.38;56.04
70271;SHT31;57680;54.292;18.598;2023-04-03T13:21:30;4.45;56.18
70271;SHT31;57680;54.292;18.598;2023-04-03T13:23:58;4.70;56.58
70271;SHT31;57680;54.292;18.598;2023-04-03T13:26:28;4.33;58.59
70271;SHT31;57680;54.292;18.598;2023-04-03T13:28:57;4.11;60.71
70271;SHT31;57680;54.292;18.598;2023-04-03T13:31:32;3.87;63.47
70271;SHT31;57680;54.292;18.598;2023-04-03T13:36:38;3.56;64.02
70271;SHT31;57680;54.292;18.598;2023-04-03T13:39:26;3.70;62.53
70271;SHT31;57680;54.292;18.598;2023-04-03T13:41:57;3.97;60.23
70271;SHT31;57680;54.292;18.598;2023-04-03T13:44:32;4.01;58.84
70271;SHT31;57680;54.292;18.598;2023-04-03T13:47:01;4.03;58.34
70271;SHT31;57680;54.292;18.598;2023-04-03T13:49:44;4.05;56.59
70271;SHT31;57680;54.292;18.598;2023-04-03T13:54:58;4.13;58.20
70271;SHT31;57680;54.292;18.598;2023-04-03T13:57:24;4.06;58.20
70271;SHT31;57680;54.292;18.598;2023-04-03T13:59:50;3.91;59.10
70271;SHT31;57680;54.292;18.598;2023-04-03T14:02:31;4.12;58.83
70271;SHT31;57680;54.292;18.598;2023-04-03T14:04:59;4.18;58.51
70271;SHT31;57680;54.292;18.598;2023-04-03T14:07:25;3.85;58.90
70271;SHT31;57680;54.292;18.598;2023-04-03T14:09:51;3.88;55.36
70271;SHT31;57680;54.292;18.598;2023-04-03T14:12:34;3.97;57.53
70271;SHT31;57680;54.292;18.598;2023-04-03T14:15:01;3.88;57.70
70271;SHT31;57680;54.292;18.598;2023-04-03T14:17:27;3.87;57.39
70271;SHT31;57680;54.292;18.598;2023-04-03T14:19:54;3.82;57.86
70271;SHT31;57680;54.292;18.598;2023-04-03T14:22:23;3.74;60.02
70271;SHT31;57680;54.292;18.598;2023-04-03T14:24:50;3.73;59.00
70271;SHT31;57680;54.292;18.598;2023-04-03T14:27:31;3.53;57.92
70271;SHT31;57680;54.292;18.598;2023-04-03T14:29:58;3.34;57.90
70271;SHT31;57680;54.292;18.598;2023-04-03T14:32:24;3.39;58.53
70271;SHT31;57680;54.292;18.598;2023-04-03T14:34:50;3.39;57.22
70271;SHT31;57680;54.292;18.598;2023-04-03T14:37:22;3.47;58.31
70271;SHT31;57680;54.292;18.598;2023-04-03T14:39:49;3.60;54.63
70271;SHT31;57680;54.292;18.598;2023-04-03T14:42:27;3.67;55.34
70271;SHT31;57680;54.292;18.598;2023-04-03T14:44:52;3.54;55.88
70271;SHT31;57680;54.292;18.598;2023-04-03T14:47:24;3.59;55.90
70271;SHT31;57680;54.292;18.598;2023-04-03T14:49:50;3.60;55.68
70271;SHT31;57680;54.292;18.598;2023-04-03T14:52:25;3.71;57.40
70271;SHT31;57680;54.292;18.598;2023-04-03T14:54:52;3.71;58.14
70271;SHT31;57680;54.292;18.598;2023-04-03T14:57:18;3.71;58.62
70271;SHT31;57680;54.292;18.598;2023-04-03T14:59:44;3.50;60.30
70271;SHT31;57680;54.292;18.598;2023-04-03T15:02:31;3.39;59.65
70271;SHT31;57680;54.292;18.598;2023-04-03T15:04:58;3.19;58.26
70271;SHT31;57680;54.292;18.598;2023-04-03T15:07:27;3.11;59.04
70271;SHT31;57680;54.292;18.598;2023-04-03T15:09:53;3.11;58.76
70271;SHT31;57680;54.292;18.598;2023-04-03T15:12:19;3.09;56.51
70271;SHT31;57680;54.292;18.598;2023-04-03T15:14:44;3.13;55.83
70271;SHT31;57680;54.292;18.598;2023-04-03T15:17:15;3.19;57.05
70271;SHT31;57680;54.292;18.598;2023-04-03T15:19:42;3.12;58.23
70271;SHT31;57680;54.292;18.598;2023-04-03T15:22:15;3.13;57.74
70271;SHT31;57680;54.292;18.598;2023-04-03T15:24:42;3.05;54.80
70271;SHT31;57680;54.292;18.598;2023-04-03T15:27:09;2.92;55.26
70271;SHT31;57680;54.292;18.598;2023-04-03T15:29:34;2.82;55.54
70271;SHT31;57680;54.292;18.598;2023-04-03T15:32:00;2.85;56.82
70271;SHT31;57680;54.292;18.598;2023-04-03T15:34:25;2.85;56.41
70271;SHT31;57680;54.292;18.598;2023-04-03T15:36:51;3.01;55.00
70271;SHT31;57680;54.292;18.598;2023-04-03T15:39:16;3.05;55.85
70271;SHT31;57680;54.292;18.598;2023-04-03T15:41:42;3.12;56.36
70271;SHT31;57680;54.292;18.598;2023-04-03T15:44:07;3.09;58.37
70271;SHT31;57680;54.292;18.598;2023-04-03T15:46:33;3.02;59.35
70271;SHT31;57680;54.292;18.598;2023-04-03T15:48:58;2.99;59.62
70271;SHT31;57680;54.292;18.598;2023-04-03T15:51:23;2.88;61.14
70271;SHT31;57680;54.292;18.598;2023-04-03T15:53:49;2.81;62.21
70271;SHT31;57680;54.292;18.598;2023-04-03T15:56:14;2.75;63.69
70271;SHT31;57680;54.292;18.598;2023-04-03T15:58:40;2.64;64.29
70271;SHT31;57680;54.292;18.598;2023-04-03T16:01:05;2.51;65.90
70271;SHT31;57680;54.292;18.598;2023-04-03T16:03:31;2.48;66.76
70271;SHT31;57680;54.292;18.598;2023-04-03T16:05:56;2.42;67.45
70271;SHT31;57680;54.292;18.598;2023-04-03T16:08:22;2.48;67.87
70271;SHT31;57680;54.292;18.598;2023-04-03T16:10:48;2.47;67.16
70271;SHT31;57680;54.292;18.598;2023-04-03T16:13:15;2.45;67.13
70271;SHT31;57680;54.292;18.598;2023-04-03T16:15:40;2.50;66.24
70271;SHT31;57680;54.292;18.598;2023-04-03T16:18:07;2.50;66.89
70271;SHT31;57680;54.292;18.598;2023-04-03T16:20:34;2.52;66.46
70271;SHT31;57680;54.292;18.598;2023-04-03T16:23:00;2.51;66.66
70271;SHT31;57680;54.292;18.598;2023-04-03T16:25:26;2.52;62.68
70271;SHT31;57680;54.292;18.598;2023-04-03T16:27:52;2.47;60.96
70271;SHT31;57680;54.292;18.598;2023-04-03T16:30:17;2.42;61.00
70271;SHT31;57680;54.292;18.598;2023-04-03T16:32:43;2.41;60.89
70271;SHT31;57680;54.292;18.598;2023-04-03T16:35:10;2.33;59.64
70271;SHT31;57680;54.292;18.598;2023-04-03T16:37:36;2.27;57.83
70271;SHT31;57680;54.292;18.598;2023-04-03T16:40:01;2.21;58.23
70271;SHT31;57680;54.292;18.598;2023-04-03T16:42:27;2.19;58.53
70271;SHT31;57680;54.292;18.598;2023-04-03T16:44:52;2.19;58.58
70271;SHT31;57680;54.292;18.598;2023-04-03T16:47:17;2.26;59.22
70271;SHT31;57680;54.292;18.598;2023-04-03T16:49:43;2.20;61.19
70271;SHT31;57680;54.292;18.598;2023-04-03T16:52:08;2.14;63.10
70271;SHT31;57680;54.292;18.598;2023-04-03T16:54:34;2.10;63.36
70271;SHT31;57680;54.292;18.598;2023-04-03T16:56:59;2.06;62.37
70271;SHT31;57680;54.292;18.598;2023-04-03T16:59:25;2.10;61.73
70271;SHT31;57680;54.292;18.598;2023-04-03T17:01:50;2.10;59.83
70271;SHT31;57680;54.292;18.598;2023-04-03T17:04:16;2.00;60.40
70271;SHT31;57680;54.292;18.598;2023-04-03T17:06:41;1.93;60.68
70271;SHT31;57680;54.292;18.598;2023-04-03T17:09:07;1.85;60.55
70271;SHT31;57680;54.292;18.598;2023-04-03T17:11:33;1.76;61.30
70271;SHT31;57680;54.292;18.598;2023-04-03T17:13:58;1.65;61.59
70271;SHT31;57680;54.292;18.598;2023-04-03T17:16:24;1.68;60.80
70271;SHT31;57680;54.292;18.598;2023-04-03T17:18:50;1.68;61.21
70271;SHT31;57680;54.292;18.598;2023-04-03T17:21:17;1.71;61.04